createdAt,value
2022-08-03T00:00:27.417Z,1.40
2022-08-03T00:02:54.391Z,1.30
2022-08-03T00:05:21.483Z,1.63
2022-08-03T00:07:49.502Z,1.23
2022-08-03T00:10:17.311Z,1.50
2022-08-03T00:12:44.265Z,1.20
2022-08-03T00:15:16.527Z,1.50
2022-08-03T00:17:53.733Z,1.88
2022-08-03T00:20:24.352Z,1.60
2022-08-03T00:22:51.571Z,1.50
2022-08-03T00:25:18.634Z,1.60
2022-08-03T00:27:45.738Z,1.58
2022-08-03T00:30:15.389Z,1.98
2022-08-03T00:32:45.070Z,1.52
2022-08-03T00:35:29.362Z,1.63
2022-08-03T00:38:00.198Z,1.88
2022-08-03T00:40:27.390Z,2.00
2022-08-03T00:43:03.302Z,1.67
2022-08-03T00:45:38.255Z,1.90
2022-08-03T00:48:19.775Z,2.00
2022-08-03T00:50:55.036Z,1.83
2022-08-03T00:53:22.195Z,2.50
2022-08-03T00:55:49.094Z,1.98
2022-08-03T00:58:16.187Z,1.90
2022-08-03T01:00:43.154Z,2.22
2022-08-03T01:03:10.779Z,2.22
2022-08-03T01:06:07.493Z,2.50
2022-08-03T01:08:48.571Z,2.60
2022-08-03T01:11:19.247Z,2.17
2022-08-03T01:14:02.389Z,2.13
2022-08-03T01:17:05.193Z,2.40
2022-08-03T01:19:46.729Z,2.40
2022-08-03T01:22:23.559Z,2.28
2022-08-03T01:25:08.505Z,2.50
2022-08-03T01:27:59.727Z,2.38
2022-08-03T01:30:38.331Z,2.53
2022-08-03T01:33:11.870Z,2.38
2022-08-03T01:35:57.335Z,2.22
2022-08-03T01:38:28.748Z,2.45
2022-08-03T01:40:56.988Z,2.40
2022-08-03T01:43:55.053Z,2.28
2022-08-03T01:46:20.673Z,2.40
2022-08-03T01:48:49.275Z,2.42
2022-08-03T01:51:18.484Z,2.22
2022-08-03T01:53:46.912Z,2.55
2022-08-03T01:56:15.953Z,2.33
2022-08-03T01:58:44.763Z,2.43
2022-08-03T02:01:13.650Z,2.40
2022-08-03T02:04:00.301Z,2.45
2022-08-03T02:07:02.231Z,2.88
2022-08-03T02:09:22.128Z,2.78
2022-08-03T02:11:50.995Z,2.63
2022-08-03T02:14:20.114Z,2.20
2022-08-03T02:16:47.927Z,2.37
2022-08-03T02:19:16.599Z,2.53
2022-08-03T02:21:57.023Z,2.35
2022-08-03T02:24:28.921Z,2.30
2022-08-03T02:26:56.877Z,2.08
2022-08-03T02:29:39.053Z,2.50
2022-08-03T02:32:10.520Z,2.28
2022-08-03T02:34:40.077Z,2.20
2022-08-03T02:37:08.470Z,2.53
2022-08-03T02:39:36.739Z,2.40
2022-08-03T02:42:05.660Z,2.53
2022-08-03T02:44:35.732Z,2.22
2022-08-03T02:47:07.956Z,2.42
2022-08-03T02:49:51.619Z,2.33
2022-08-03T02:52:23.295Z,2.58
2022-08-03T02:54:57.835Z,2.50
2022-08-03T02:57:28.352Z,2.70
2022-08-03T02:59:57.226Z,2.97
2022-08-03T03:02:24.997Z,2.85
2022-08-03T03:05:51.527Z,2.60
2022-08-03T03:07:53.039Z,2.83
2022-08-03T03:10:24.578Z,3.03
2022-08-03T03:12:56.716Z,3.00
2022-08-03T03:15:28.086Z,2.92
2022-08-03T03:17:56.125Z,2.80
2022-08-03T03:20:29.310Z,3.20
2022-08-03T03:23:00.214Z,3.00
2022-08-03T03:25:30.592Z,2.75
2022-08-03T03:27:58.184Z,3.00
2022-08-03T03:30:26.129Z,2.80
2022-08-03T03:32:53.742Z,3.10
2022-08-03T03:35:21.075Z,3.22
2022-08-03T03:37:48.049Z,2.90
2022-08-03T03:40:15.022Z,2.60
2022-08-03T03:42:42.479Z,3.08
2022-08-03T03:45:10.201Z,3.10
2022-08-03T03:47:37.384Z,2.65
2022-08-03T03:50:05.300Z,2.65
2022-08-03T03:52:33.311Z,2.90
2022-08-03T03:55:01.465Z,3.13
2022-08-03T03:57:29.521Z,2.95
2022-08-03T03:59:56.685Z,2.92
2022-08-03T04:02:23.775Z,2.78
2022-08-03T04:05:08.960Z,2.95
2022-08-03T04:08:32.384Z,2.88
2022-08-03T04:11:11.150Z,2.80
2022-08-03T04:13:54.951Z,3.15
2022-08-03T04:16:26.719Z,3.05
2022-08-03T04:19:03.001Z,3.10
2022-08-03T04:21:31.333Z,3.10
2022-08-03T04:24:02.787Z,3.10
2022-08-03T04:26:34.781Z,3.97
2022-08-03T04:29:02.780Z,3.22
2022-08-03T04:31:30.354Z,2.95
2022-08-03T04:33:57.486Z,3.00
2022-08-03T04:36:27.154Z,3.10
2022-08-03T04:39:04.417Z,3.40
2022-08-03T04:41:32.484Z,3.03
2022-08-03T04:44:21.285Z,3.30
2022-08-03T04:46:56.239Z,3.30
2022-08-03T04:49:23.956Z,3.40
2022-08-03T04:51:51.587Z,3.05
2022-08-03T04:54:18.577Z,3.05
2022-08-03T04:56:45.540Z,3.00
2022-08-03T04:59:12.821Z,3.30
2022-08-03T05:01:41.421Z,3.25
2022-08-03T05:04:08.360Z,3.58
2022-08-03T05:06:35.447Z,3.55
2022-08-03T05:09:02.501Z,3.53
2022-08-03T05:11:31.067Z,3.85
2022-08-03T05:13:57.963Z,3.70
2022-08-03T05:16:25.881Z,3.47
2022-08-03T05:18:54.573Z,3.40
2022-08-03T05:21:21.408Z,3.53
2022-08-03T05:23:48.301Z,3.50
2022-08-03T05:26:15.217Z,3.50
2022-08-03T05:28:50.627Z,3.50
2022-08-03T05:31:18.247Z,3.50
2022-08-03T05:33:45.177Z,4.35
2022-08-03T05:36:12.616Z,3.67
2022-08-03T05:38:39.636Z,3.53
2022-08-03T05:41:20.304Z,3.70
2022-08-03T05:43:50.515Z,3.90
2022-08-03T05:46:17.464Z,3.38
2022-08-03T05:48:44.440Z,3.33
2022-08-03T05:51:12.048Z,3.42
2022-08-03T05:53:43.243Z,3.42
2022-08-03T05:56:15.344Z,3.70
2022-08-03T05:58:47.328Z,3.20
2022-08-03T06:01:15.933Z,3.40
2022-08-03T06:03:43.170Z,3.15
2022-08-03T06:06:11.464Z,3.40
2022-08-03T06:08:38.949Z,3.08
2022-08-03T06:11:06.085Z,3.30
2022-08-03T06:13:33.378Z,3.30
2022-08-03T06:16:00.298Z,3.33
2022-08-03T06:18:27.174Z,2.65
2022-08-03T06:20:55.069Z,3.60
2022-08-03T06:23:24.545Z,2.90
2022-08-03T06:26:09.821Z,2.90
2022-08-03T06:28:53.368Z,3.27
2022-08-03T06:31:23.961Z,3.20
2022-08-03T06:34:32.435Z,2.67
2022-08-03T06:36:38.033Z,2.72
2022-08-03T06:39:06.437Z,2.72
2022-08-03T06:41:38.068Z,2.80
2022-08-03T06:44:08.716Z,2.85
2022-08-03T06:46:37.344Z,2.60
2022-08-03T06:49:04.320Z,2.90
2022-08-03T06:52:03.900Z,2.97
2022-08-03T06:54:18.354Z,2.70
2022-08-03T06:56:45.196Z,2.47
2022-08-03T07:00:09.005Z,2.35
2022-08-03T07:01:58.910Z,2.60
2022-08-03T07:04:25.854Z,2.60
2022-08-03T07:06:52.722Z,2.60
2022-08-03T07:09:19.643Z,2.42
2022-08-03T07:11:46.494Z,2.72
2022-08-03T07:14:13.755Z,2.42
2022-08-03T07:16:40.673Z,2.50
2022-08-03T07:19:07.545Z,2.45
2022-08-03T07:21:34.454Z,2.40
2022-08-03T07:24:01.323Z,2.58
2022-08-03T07:26:28.401Z,2.43
2022-08-03T07:28:55.298Z,2.90
2022-08-03T07:31:22.340Z,2.50
2022-08-03T07:33:49.250Z,2.72
2022-08-03T07:36:16.175Z,2.70
2022-08-03T07:38:43.039Z,2.80
2022-08-03T07:41:09.927Z,2.63
2022-08-03T07:43:36.828Z,2.65
2022-08-03T07:46:03.713Z,2.65
2022-08-03T07:48:30.730Z,2.55
2022-08-03T07:50:57.616Z,3.08
2022-08-03T07:53:24.517Z,2.57
2022-08-03T07:55:51.404Z,2.95
2022-08-03T07:58:23.630Z,2.60
2022-08-03T08:00:53.098Z,3.20
2022-08-03T08:03:21.941Z,3.20
2022-08-03T08:05:49.611Z,2.92
2022-08-03T08:08:16.569Z,2.60
2022-08-03T08:10:58.506Z,2.65
2022-08-03T08:13:25.832Z,2.75
2022-08-03T08:15:52.703Z,2.58
2022-08-03T08:18:19.608Z,2.63
2022-08-03T08:20:46.569Z,2.70
2022-08-03T08:23:42.149Z,3.10
2022-08-03T08:26:00.507Z,2.55
2022-08-03T08:28:31.107Z,2.80
2022-08-03T08:31:00.374Z,2.40
2022-08-03T08:33:37.326Z,2.65
2022-08-03T08:36:14.822Z,2.20
2022-08-03T08:38:44.490Z,2.80
2022-08-03T08:41:13.264Z,2.70
2022-08-03T08:43:40.647Z,3.13
2022-08-03T08:46:11.882Z,2.50
2022-08-03T08:48:44.162Z,2.55
2022-08-03T08:51:12.601Z,2.78
2022-08-03T08:53:44.006Z,2.38
2022-08-03T08:56:17.496Z,2.72
2022-08-03T08:58:49.127Z,2.50
2022-08-03T09:01:20.111Z,2.22
2022-08-03T09:03:47.893Z,2.67
2022-08-03T09:06:15.253Z,2.65
2022-08-03T09:08:42.194Z,2.28
2022-08-03T09:11:09.497Z,2.65
2022-08-03T09:13:39.394Z,2.50
2022-08-03T09:16:16.441Z,2.80
2022-08-03T09:18:48.578Z,2.92
2022-08-03T09:21:31.219Z,2.60
2022-08-03T09:24:03.704Z,2.20
2022-08-03T09:26:32.683Z,2.60
2022-08-03T09:29:14.516Z,2.42
2022-08-03T09:31:46.238Z,2.00
2022-08-03T09:34:15.510Z,2.65
2022-08-03T09:36:50.268Z,2.72
2022-08-03T09:39:19.402Z,2.40
2022-08-03T09:41:48.893Z,2.45
2022-08-03T09:44:25.699Z,2.60
2022-08-03T09:46:58.564Z,2.15
2022-08-03T09:49:25.867Z,2.30
2022-08-03T09:52:30.102Z,2.13
2022-08-03T09:54:41.245Z,2.55
2022-08-03T09:57:08.316Z,2.35
2022-08-03T09:59:35.278Z,2.10
2022-08-03T10:02:06.363Z,2.08
2022-08-03T10:04:33.858Z,2.30
2022-08-03T10:07:04.104Z,2.20
2022-08-03T10:09:31.073Z,2.58
2022-08-03T10:11:59.919Z,2.17
2022-08-03T10:14:30.367Z,2.70
2022-08-03T10:16:57.213Z,2.13
2022-08-03T10:19:25.626Z,2.13
2022-08-03T10:22:21.971Z,2.38
2022-08-03T10:25:11.303Z,2.17
2022-08-03T10:27:42.711Z,1.80
2022-08-03T10:30:11.841Z,2.75
2022-08-03T10:32:46.123Z,2.35
2022-08-03T10:35:21.421Z,2.00
2022-08-03T10:37:59.097Z,2.20
2022-08-03T10:43:36.240Z,2.13
2022-08-03T10:46:07.983Z,2.35
2022-08-03T10:48:36.136Z,2.15
2022-08-03T10:51:04.804Z,1.75
2022-08-03T10:53:54.242Z,2.17
2022-08-03T10:56:54.695Z,1.73
2022-08-03T11:00:00.849Z,2.00
2022-08-03T11:03:03.234Z,2.30
2022-08-03T11:05:31.674Z,1.92
2022-08-03T11:08:28.113Z,2.67
2022-08-03T11:10:58.442Z,1.92
2022-08-03T11:13:28.337Z,2.33
2022-08-03T11:15:59.797Z,2.50
2022-08-03T11:18:29.566Z,2.30
2022-08-03T11:20:58.914Z,2.00
2022-08-03T11:24:04.837Z,1.63
2022-08-03T11:26:29.324Z,1.92
2022-08-03T11:29:29.652Z,1.90
2022-08-03T11:31:56.795Z,2.20
2022-08-03T11:34:24.638Z,1.70
2022-08-03T11:37:26.394Z,2.30
2022-08-03T11:39:57.112Z,1.92
2022-08-03T11:42:25.576Z,2.27
2022-08-03T11:44:57.708Z,1.88
2022-08-03T11:47:29.589Z,2.00
2022-08-03T11:50:00.306Z,1.90
2022-08-03T11:52:33.808Z,2.15
2022-08-03T11:55:01.003Z,2.72
2022-08-03T11:59:01.901Z,2.13
2022-08-03T12:00:30.806Z,1.85
2022-08-03T12:03:01.645Z,1.65
2022-08-03T12:05:51.373Z,1.85
2022-08-03T12:08:30.185Z,2.33
2022-08-03T12:11:00.129Z,1.77
2022-08-03T12:14:27.080Z,1.70
2022-08-03T12:16:22.543Z,1.90
2022-08-03T12:19:16.404Z,1.83
2022-08-03T12:21:56.800Z,2.30
2022-08-03T12:24:23.991Z,1.80
2022-08-03T12:26:58.261Z,1.98
2022-08-03T12:29:26.335Z,2.10
2022-08-03T12:31:53.308Z,1.80
2022-08-03T12:34:20.225Z,1.70
2022-08-03T12:37:22.852Z,1.90
2022-08-03T12:40:02.213Z,1.70
2022-08-03T12:42:31.552Z,1.38
2022-08-03T12:44:58.404Z,1.48
2022-08-03T12:47:25.299Z,1.90
2022-08-03T12:49:53.918Z,1.65
2022-08-03T12:52:22.856Z,1.33
2022-08-03T12:55:00.659Z,1.85
2022-08-03T12:57:41.357Z,2.10
2022-08-03T13:00:28.751Z,1.80
2022-08-03T13:03:38.418Z,2.30
2022-08-03T13:05:51.873Z,2.40
2022-08-03T13:08:24.581Z,1.75
2022-08-03T13:10:51.754Z,1.60
2022-08-03T13:13:20.756Z,2.25
2022-08-03T13:15:48.348Z,1.77
2022-08-03T13:18:17.319Z,2.33
2022-08-03T13:20:44.685Z,1.88
2022-08-03T13:23:22.090Z,1.83
2022-08-03T13:25:55.835Z,1.70
2022-08-03T13:28:23.377Z,1.70
2022-08-03T13:30:50.394Z,1.63
2022-08-03T13:33:17.719Z,1.50
2022-08-03T13:35:44.594Z,1.73
2022-08-03T13:38:11.593Z,1.80
2022-08-03T13:40:41.779Z,1.73
2022-08-03T13:43:09.041Z,1.90
2022-08-03T13:45:36.143Z,1.73
2022-08-03T13:48:03.065Z,1.60
2022-08-03T13:50:31.351Z,1.90
2022-08-03T13:52:58.333Z,1.73
2022-08-03T13:55:25.355Z,1.90
2022-08-03T13:58:06.215Z,1.75
2022-08-03T14:00:39.826Z,1.85
2022-08-03T14:03:13.761Z,1.52
2022-08-03T14:05:42.107Z,1.57
2022-08-03T14:08:09.931Z,2.00
2022-08-03T14:10:39.091Z,1.30
2022-08-03T14:13:06.587Z,1.60
2022-08-03T14:15:38.293Z,1.92
2022-08-03T14:18:15.839Z,1.30
2022-08-03T14:20:47.806Z,1.50
2022-08-03T14:23:17.469Z,1.30
2022-08-03T14:25:52.540Z,1.60
2022-08-03T14:28:24.338Z,1.70
2022-08-03T14:30:58.334Z,1.70
2022-08-03T14:33:25.730Z,1.40
2022-08-03T14:35:53.340Z,1.33
2022-08-03T14:38:21.290Z,1.30
2022-08-03T14:40:48.959Z,1.30
2022-08-03T14:43:21.285Z,1.10
2022-08-03T14:45:53.477Z,1.40
2022-08-03T14:50:24.442Z,1.00
2022-08-03T14:51:08.479Z,1.98
2022-08-03T14:53:35.456Z,1.38
2022-08-03T14:56:05.327Z,1.37
2022-08-03T14:58:36.437Z,1.30
2022-08-03T15:01:04.170Z,1.02
2022-08-03T15:03:51.030Z,1.90
2022-08-03T15:06:17.923Z,1.27
2022-08-03T15:09:00.560Z,1.25
2022-08-03T15:11:32.925Z,1.38
2022-08-03T15:13:59.845Z,1.05
2022-08-03T15:16:29.876Z,1.33
2022-08-03T15:18:56.969Z,1.30
2022-08-03T15:21:46.918Z,1.45
2022-08-03T15:24:11.599Z,1.35
2022-08-03T15:26:41.539Z,1.60
2022-08-03T15:29:08.808Z,1.48
2022-08-03T15:31:55.704Z,1.60
2022-08-03T15:34:22.705Z,1.50
2022-08-03T15:36:49.614Z,1.30
2022-08-03T15:39:16.582Z,1.42
2022-08-03T15:41:43.594Z,1.15
2022-08-03T15:44:10.452Z,1.27
2022-08-03T15:46:37.306Z,1.38
2022-08-03T15:49:04.166Z,1.23
2022-08-03T15:51:31.039Z,1.23
2022-08-03T15:53:57.905Z,1.83
2022-08-03T15:56:24.992Z,1.33
2022-08-03T15:59:09.863Z,1.35
2022-08-03T16:01:40.756Z,1.30
2022-08-03T16:04:07.754Z,1.42
2022-08-03T16:06:36.312Z,1.20
2022-08-03T16:09:23.610Z,1.25
2022-08-03T16:11:55.372Z,1.35
2022-08-03T16:14:32.368Z,1.10
2022-08-03T16:17:05.249Z,1.42
2022-08-03T16:19:32.233Z,1.33
2022-08-03T16:21:59.535Z,1.10
2022-08-03T16:24:28.294Z,1.30
2022-08-03T16:26:56.264Z,1.63
2022-08-03T16:29:23.804Z,1.20
2022-08-03T16:31:52.138Z,1.20
2022-08-03T16:34:19.969Z,1.13
2022-08-03T16:36:46.960Z,1.50
2022-08-03T16:39:13.926Z,1.30
2022-08-03T16:41:53.636Z,1.20
2022-08-03T16:44:29.952Z,1.60
2022-08-03T16:46:57.107Z,1.20
2022-08-03T16:49:55.055Z,1.30
2022-08-03T16:52:12.821Z,1.30
2022-08-03T16:54:40.350Z,1.45
2022-08-03T16:57:07.617Z,1.23
2022-08-03T16:59:36.306Z,1.10
2022-08-03T17:02:09.951Z,1.38
2022-08-03T17:04:40.432Z,1.10
2022-08-03T17:07:08.861Z,1.17
2022-08-03T17:09:47.374Z,1.20
2022-08-03T17:12:14.971Z,1.30
2022-08-03T17:14:42.663Z,1.37
2022-08-03T17:17:21.077Z,1.17
2022-08-03T17:19:54.225Z,1.30
2022-08-03T17:22:28.046Z,1.20
2022-08-03T17:24:58.157Z,1.10
2022-08-03T17:28:48.490Z,0.93
2022-08-03T17:30:19.104Z,1.40
2022-08-03T17:32:56.872Z,1.20
2022-08-03T17:35:24.342Z,1.10
2022-08-03T17:38:03.607Z,1.20
2022-08-03T17:40:31.939Z,1.05
2022-08-03T17:43:00.819Z,1.17
2022-08-03T17:45:42.277Z,1.00
2022-08-03T17:48:18.634Z,1.33
2022-08-03T17:51:24.208Z,1.50
2022-08-03T17:54:18.219Z,1.35
2022-08-03T17:56:54.657Z,1.25
2022-08-03T17:59:50.385Z,1.30
2022-08-03T18:02:52.907Z,1.20
2022-08-03T18:08:11.263Z,1.10
2022-08-03T18:10:49.627Z,1.08
2022-08-03T18:13:23.803Z,1.20
2022-08-03T18:16:04.769Z,1.10
2022-08-03T18:18:36.563Z,1.08
2022-08-03T18:21:09.310Z,1.08
2022-08-03T18:23:44.769Z,1.10
2022-08-03T18:26:17.762Z,1.10
2022-08-03T18:28:45.082Z,1.10
2022-08-03T18:31:59.445Z,1.08
2022-08-03T18:34:18.111Z,1.27
2022-08-03T18:36:52.224Z,1.40
2022-08-03T18:39:23.206Z,1.20
2022-08-03T18:41:50.143Z,1.10
2022-08-03T18:44:46.564Z,1.17
2022-08-03T18:47:16.997Z,1.00
2022-08-03T18:50:19.595Z,1.10
2022-08-03T18:52:53.141Z,1.20
2022-08-03T18:55:33.440Z,1.13
2022-08-03T18:58:15.770Z,1.13
2022-08-03T19:01:06.444Z,1.10
2022-08-03T19:04:04.305Z,1.00
2022-08-03T19:06:33.048Z,0.95
2022-08-03T19:09:09.443Z,1.10
2022-08-03T19:12:14.418Z,1.05
2022-08-03T19:14:44.681Z,1.10
2022-08-03T19:17:14.097Z,0.90
2022-08-03T19:19:50.623Z,1.30
2022-08-03T19:22:22.275Z,1.25
2022-08-03T19:24:51.872Z,1.10
2022-08-03T19:27:26.915Z,1.30
2022-08-03T19:29:58.855Z,1.30
2022-08-03T19:32:32.012Z,1.20
2022-08-03T19:35:00.674Z,1.73
2022-08-03T19:37:37.983Z,1.10
2022-08-03T19:43:00.996Z,1.10
2022-08-03T19:46:04.848Z,1.20
2022-08-03T19:48:28.882Z,1.08
2022-08-03T19:50:57.883Z,1.08
2022-08-03T19:53:35.284Z,1.17
2022-08-03T19:56:06.061Z,1.40
2022-08-03T19:58:33.884Z,1.33
2022-08-03T20:01:00.866Z,1.38
2022-08-03T20:03:48.185Z,1.20
2022-08-03T20:06:21.957Z,1.30
2022-08-03T20:08:51.502Z,1.20
2022-08-03T20:11:19.045Z,1.30
2022-08-03T20:13:49.016Z,1.70
2022-08-03T20:16:16.098Z,1.30
2022-08-03T20:18:42.986Z,1.40
2022-08-03T20:21:15.582Z,1.10
2022-08-03T20:24:01.868Z,1.15
2022-08-03T20:26:31.451Z,1.40
2022-08-03T20:29:09.040Z,1.30
2022-08-03T20:31:37.596Z,1.50
2022-08-03T20:34:06.381Z,1.60
2022-08-03T20:36:33.457Z,1.60
2022-08-03T20:39:00.476Z,1.38
2022-08-03T20:41:27.506Z,1.35
2022-08-03T20:43:54.418Z,1.48
2022-08-03T20:46:32.569Z,1.40
2022-08-03T20:49:06.182Z,1.30
2022-08-03T20:51:49.015Z,1.20
2022-08-03T20:54:28.818Z,1.42
2022-08-03T20:56:58.810Z,1.30
2022-08-03T20:59:35.033Z,1.33
2022-08-03T21:02:05.877Z,1.60
2022-08-03T21:04:32.764Z,1.60
2022-08-03T21:07:16.460Z,1.65
2022-08-03T21:09:57.138Z,1.47
2022-08-03T21:12:34.926Z,1.70
2022-08-03T21:13:05.638Z,1.60
2022-08-03T21:13:10.601Z,1.52
2022-08-03T21:15:07.321Z,1.50
2022-08-03T21:17:40.935Z,1.58
2022-08-03T21:20:10.753Z,1.50
2022-08-03T21:22:39.540Z,1.47
2022-08-03T21:25:09.285Z,1.50
2022-08-03T21:27:37.213Z,1.40
2022-08-03T21:30:09.286Z,1.58
2022-08-03T21:32:40.151Z,1.40
2022-08-03T21:35:09.558Z,1.38
2022-08-03T21:37:38.401Z,1.77
2022-08-03T21:40:06.466Z,1.70
2022-08-03T21:42:33.528Z,1.90
2022-08-03T21:45:00.422Z,1.40
2022-08-03T21:47:27.603Z,1.60
2022-08-03T21:50:06.687Z,1.50
2022-08-03T21:52:44.749Z,1.65
2022-08-03T21:55:20.432Z,1.58
2022-08-03T21:57:52.830Z,1.55
2022-08-03T22:00:23.083Z,1.98
2022-08-03T22:02:56.099Z,1.80
2022-08-03T22:05:29.183Z,1.92
2022-08-03T22:08:11.279Z,1.85
2022-08-03T22:10:38.336Z,1.52
2022-08-03T22:13:05.180Z,1.77
2022-08-03T22:15:32.807Z,2.15
2022-08-03T22:18:03.515Z,1.70
2022-08-03T22:20:30.937Z,1.70
2022-08-03T22:23:01.803Z,1.75
2022-08-03T22:25:32.181Z,2.20
2022-08-03T22:28:02.084Z,1.50
2022-08-03T22:30:29.183Z,1.65
2022-08-03T22:32:57.532Z,1.60
2022-08-03T22:35:26.322Z,1.63
2022-08-03T22:37:55.400Z,1.90
2022-08-03T22:40:22.260Z,1.70
2022-08-03T22:42:50.626Z,1.58
2022-08-03T22:46:07.855Z,1.83
2022-08-03T22:48:08.019Z,1.80
2022-08-03T22:50:35.118Z,1.60
2022-08-03T22:53:02.506Z,2.20
2022-08-03T22:55:29.685Z,2.28
2022-08-03T22:57:56.706Z,2.20
2022-08-03T23:00:24.420Z,2.55
2022-08-03T23:02:53.496Z,2.22
2022-08-03T23:06:02.104Z,2.10
2022-08-03T23:08:15.204Z,2.20
2022-08-03T23:10:46.772Z,2.15
2022-08-03T23:13:17.327Z,2.25
2022-08-03T23:15:50.971Z,2.17
2022-08-03T23:18:19.544Z,2.42
2022-08-03T23:20:49.436Z,2.17
2022-08-03T23:23:19.789Z,2.50
2022-08-03T23:25:49.567Z,2.17
2022-08-03T23:28:16.722Z,2.30
2022-08-03T23:30:44.558Z,2.28
2022-08-03T23:33:15.635Z,2.40
2022-08-03T23:36:29.595Z,2.30
2022-08-03T23:38:48.000Z,2.60
2022-08-03T23:41:16.579Z,2.50
2022-08-03T23:43:51.799Z,3.15
2022-08-03T23:46:22.378Z,4.85
2022-08-03T23:48:50.714Z,2.95
2022-08-03T23:51:37.655Z,2.97
2022-08-03T23:54:17.575Z,2.65
2022-08-03T23:56:56.517Z,2.53
2022-08-03T23:59:35.801Z,2.38
